MST,Max TemperatureF,Mean TemperatureF,Min TemperatureF,Max Dew PointF,MeanDew PointF,Min DewpointF,Max Humidity, Mean Humidity, Min Humidity, Max Sea Level PressureIn, Mean Sea Level PressureIn, Min Sea Level PressureIn, Max VisibilityMiles, Mean VisibilityMiles, Min VisibilityMiles, Max Wind SpeedMPH, Mean Wind SpeedMPH, Max Gust SpeedMPH,PrecipitationIn, CloudCover, Events, WindDirDegrees
2013-1-1,47,33,19,24,19,16,88,61,33,30.24,30.15,30.02,10,10,10,12,5,14,0.00,0,,15
2013-1-2,46,30,14,21,13,7,80,50,20,30.30,30.23,30.13,10,10,10,12,5,16,0.00,0,,354
2013-1-3,31,28,24,28,25,13,100,79,58,30.47,30.38,30.29,10,5,1,15,7,18,0.06,8,Snow,353
2013-1-4,32,27,21,28,26,19,100,89,78,30.41,30.31,30.19,10,5,0,17,8,20,0.01,8,Fog-Snow,177
2013-1-5,54,37,20,29,23,18,100,63,26,30.39,30.25,30.17,10,5,0,13,4,16,0.00,2,Fog,321
2013-1-6,47,33,19,23,19,15,84,59,34,30.47,30.34,30.22,10,10,10,15,5,18,0.00,0,,277
2013-1-7,48,37,26,26,24,22,81,62,42,30.17,30.03,29.94,10,10,8,9,3,14,0.00,0,,324
2013-1-8,52,38,23,31,26,20,81,63,44,30.12,29.97,29.86,10,10,9,16,4,21,0.00,0,,261
2013-1-9,57,46,35,37,25,17,92,57,22,30.32,30.15,30.05,10,10,4,22,14,26,0.31,6,Rain,359
2013-1-10,54,44,35,42,37,30,96,77,46,30.07,29.91,29.74,10,10,7,17,9,,0.04,3,Rain,244
2013-1-11,61,48,34,35,23,2,79,51,22,29.81,29.68,29.60,10,10,8,33,17,41,0.00,0,,227
2013-1-12,43,35,26,15,9,4,49,37,25,30.01,29.89,29.81,10,10,10,17,5,21,0.00,2,,334
2013-1-13,38,27,16,21,13,6,81,57,32,30.18,30.10,30.03,10,10,7,15,6,18,0.00,1,,118
2013-1-14,28,24,20,18,15,12,74,62,50,30.20,30.15,30.07,10,10,10,15,6,18,0.00,7,,142
2013-1-15,39,28,17,16,10,-3,77,47,17,30.28,30.21,30.14,10,10,10,21,4,25,0.00,3,,330
2013-1-16,55,35,15,19,13,6,61,40,19,30.37,30.30,30.22,10,10,10,10,3,14,0.00,0,,253
2013-1-17,56,41,26,22,18,14,63,45,26,30.53,30.43,30.36,10,10,10,14,5,16,0.00,0,,308
2013-1-18,60,42,23,25,22,19,75,49,23,30.38,30.25,30.13,10,10,10,14,4,18,0.00,0,,167
2013-1-19,67,46,24,23,15,7,69,39,9,30.25,30.16,30.09,10,10,10,17,5,24,0.00,0,,350
2013-1-20,65,46,27,17,12,9,46,30,13,30.23,30.14,30.00,10,10,10,14,6,17,0.00,0,,332
2013-1-21,52,40,27,24,19,12,59,45,30,30.30,30.20,30.13,10,10,10,14,6,16,0.00,0,,303
2013-1-22,67,44,21,23,18,14,71,42,13,30.23,30.14,30.05,10,10,10,14,4,17,0.00,0,,175
2013-1-23,74,49,24,20,15,6,63,35,7,30.26,30.14,30.07,10,10,10,16,6,20,0.00,0,,226
2013-1-24,71,50,28,27,16,10,43,27,11,30.19,30.09,30.02,10,10,10,15,4,17,0.00,0,,231
2013-1-25,71,58,45,39,32,26,51,37,23,30.07,30.03,29.97,10,10,10,25,8,29,0.00,0,,335
2013-1-26,63,53,43,41,35,27,63,53,42,30.02,29.93,29.83,10,10,10,18,8,23,T,3,Rain,175
2013-1-27,72,58,44,42,35,29,76,48,20,29.86,29.82,29.74,10,10,10,26,11,32,0.00,1,,226
2013-1-28,69,56,42,38,35,33,76,56,35,29.87,29.79,29.77,10,10,10,20,11,,0.00,0,,184
2013-1-29,52,41,30,25,16,1,78,47,16,29.95,29.77,29.67,10,9,3,28,19,39,0.00,3,,310
2013-1-30,53,39,25,23,9,1,78,46,14,30.14,30.07,29.99,10,10,10,26,10,32,0.00,0,,287
2013-1-31,65,45,25,19,13,7,55,34,12,30.18,30.13,30.06,10,10,10,29,8,37,0.00,0,,278